createdAt,value
2018-08-19T00:01:42.450Z,14.00
2018-08-19T00:04:16.634Z,7.73
2018-08-19T00:06:51.005Z,7.43
2018-08-19T00:09:25.266Z,8.33
2018-08-19T00:11:59.584Z,8.77
2018-08-19T00:14:35.370Z,10.10
2018-08-19T00:17:09.620Z,9.77
2018-08-19T00:19:43.926Z,9.03
2018-08-19T00:22:18.234Z,8.17
2018-08-19T00:24:52.508Z,7.93
2018-08-19T00:27:26.810Z,5.83
2018-08-19T00:30:00.968Z,10.50
2018-08-19T00:32:35.694Z,9.10
2018-08-19T00:35:09.833Z,7.63
2018-08-19T00:37:44.216Z,7.83
2018-08-19T00:40:18.467Z,6.93
2018-08-19T00:42:52.723Z,10.80
2018-08-19T00:45:27.149Z,7.97
2018-08-19T00:48:01.550Z,7.60
2018-08-19T00:50:35.941Z,6.87
2018-08-19T00:53:10.881Z,7.40
2018-08-19T00:55:49.927Z,8.07
2018-08-19T00:58:24.289Z,6.80
2018-08-19T01:00:58.604Z,8.27
2018-08-19T01:03:43.211Z,5.67
2018-08-19T01:06:17.387Z,8.20
2018-08-19T01:08:51.622Z,7.83
2018-08-19T01:11:29.405Z,6.10
2018-08-19T01:14:08.607Z,8.00
2018-08-19T01:16:42.933Z,7.73
2018-08-19T01:19:17.708Z,7.13
2018-08-19T01:21:53.211Z,7.77
2018-08-19T01:24:27.354Z,8.93
2018-08-19T01:27:01.595Z,7.80
2018-08-19T01:29:43.021Z,10.83
2018-08-19T01:32:17.189Z,12.97
2018-08-19T01:34:51.394Z,9.43
2018-08-19T01:37:25.699Z,7.20
2018-08-19T01:40:00.010Z,8.63
2018-08-19T01:42:35.078Z,7.37
2018-08-19T01:45:10.069Z,8.70
2018-08-19T01:47:44.369Z,11.83
2018-08-19T01:50:18.938Z,10.27
2018-08-19T01:52:53.238Z,11.63
2018-08-19T01:55:28.942Z,7.40
2018-08-19T01:58:03.222Z,8.47
2018-08-19T02:00:37.425Z,8.00
2018-08-19T02:03:11.646Z,7.43
2018-08-19T02:05:45.966Z,12.57
2018-08-19T02:08:20.613Z,7.70
2018-08-19T02:10:54.806Z,8.27
2018-08-19T02:13:29.009Z,10.07
2018-08-19T02:16:07.662Z,12.97
2018-08-19T02:18:41.930Z,7.57
2018-08-19T02:21:16.113Z,9.70
2018-08-19T02:23:50.479Z,7.80
2018-08-19T02:26:31.261Z,11.10
2018-08-19T02:29:45.198Z,7.60
2018-08-19T02:32:19.461Z,8.67
2018-08-19T02:34:53.788Z,9.23
2018-08-19T02:37:28.034Z,10.03
2018-08-19T02:40:02.412Z,8.73
2018-08-19T02:42:36.701Z,9.17
2018-08-19T02:45:11.018Z,8.80
2018-08-19T02:47:45.250Z,12.30
2018-08-19T02:50:19.563Z,9.57
2018-08-19T02:52:53.879Z,10.07
2018-08-19T02:55:28.190Z,8.63
2018-08-19T02:58:07.690Z,7.73
2018-08-19T03:00:41.873Z,8.63
2018-08-19T03:03:16.218Z,15.87
2018-08-19T03:05:54.267Z,9.57
2018-08-19T03:08:29.240Z,10.27
2018-08-19T03:11:03.533Z,8.53
2018-08-19T03:13:37.806Z,10.63
2018-08-19T03:16:11.959Z,9.87
2018-08-19T03:18:46.969Z,10.93
2018-08-19T03:21:22.221Z,11.37
2018-08-19T03:23:56.463Z,12.63
2018-08-19T03:26:31.257Z,13.60
2018-08-19T03:29:09.707Z,10.23
2018-08-19T03:31:46.040Z,12.60
2018-08-19T03:34:20.230Z,14.00
2018-08-19T03:36:55.090Z,10.63
2018-08-19T03:39:29.321Z,11.93
2018-08-19T03:42:03.661Z,10.73
2018-08-19T03:44:37.924Z,12.73
2018-08-19T03:47:18.199Z,15.33
2018-08-19T03:49:52.481Z,12.53
2018-08-19T03:52:26.811Z,10.47
2018-08-19T03:55:01.150Z,15.13
2018-08-19T03:57:35.362Z,12.33
2018-08-19T04:00:10.660Z,11.30
2018-08-19T04:02:44.786Z,12.13
2018-08-19T04:05:24.649Z,16.00
2018-08-19T04:07:58.919Z,10.70
2018-08-19T04:10:33.453Z,14.87
2018-08-19T04:13:34.846Z,11.67
2018-08-19T04:16:10.212Z,14.23
2018-08-19T04:18:45.940Z,13.50
2018-08-19T04:21:20.162Z,9.63
2018-08-19T04:23:54.596Z,13.90
2018-08-19T04:26:29.198Z,10.70
2018-08-19T04:29:05.355Z,16.83
2018-08-19T04:31:39.661Z,12.83
2018-08-19T04:34:14.111Z,14.57
2018-08-19T04:36:48.328Z,12.97
2018-08-19T04:39:22.561Z,12.93
2018-08-19T04:41:56.882Z,14.10
2018-08-19T04:44:31.033Z,13.23
2018-08-19T04:47:20.630Z,12.87
2018-08-19T04:49:55.302Z,14.07
2018-08-19T04:52:31.688Z,13.13
2018-08-19T04:55:05.957Z,13.87
2018-08-19T04:57:40.412Z,13.33
2018-08-19T05:00:14.654Z,15.40
2018-08-19T05:02:48.964Z,11.20
2018-08-19T05:05:23.181Z,18.73
2018-08-19T05:07:57.580Z,16.10
2018-08-19T05:10:31.810Z,15.47
2018-08-19T05:13:06.738Z,11.90
2018-08-19T05:15:41.618Z,14.77
2018-08-19T05:18:15.866Z,14.73
2018-08-19T05:20:51.183Z,14.70
2018-08-19T05:23:25.483Z,12.00
2018-08-19T05:25:59.907Z,16.43
2018-08-19T05:28:34.305Z,16.03
2018-08-19T05:31:08.533Z,13.63
2018-08-19T05:33:43.094Z,13.93
2018-08-19T05:36:17.765Z,13.73
2018-08-19T05:38:52.137Z,13.87
2018-08-19T05:41:26.456Z,14.57
2018-08-19T05:44:00.799Z,16.93
2018-08-19T05:46:35.210Z,15.17
2018-08-19T05:49:09.590Z,17.63
2018-08-19T05:51:43.834Z,17.80
2018-08-19T05:54:18.118Z,16.50
2018-08-19T05:56:56.559Z,12.47
2018-08-19T05:59:30.828Z,19.70
2018-08-19T06:02:05.105Z,16.27
2018-08-19T06:04:39.272Z,16.53
2018-08-19T06:07:13.666Z,18.20
2018-08-19T06:09:47.964Z,16.23
2018-08-19T06:12:22.242Z,14.63
2018-08-19T06:14:58.138Z,15.77
2018-08-19T06:17:33.227Z,17.67
2018-08-19T06:20:07.673Z,16.37
2018-08-19T06:22:41.902Z,19.37
2018-08-19T06:25:16.124Z,17.53
2018-08-19T06:27:51.218Z,16.90
2018-08-19T06:30:25.470Z,19.47
2018-08-19T06:32:59.755Z,20.83
2018-08-19T06:35:33.997Z,16.37
2018-08-19T06:38:08.314Z,17.47
2018-08-19T06:40:42.598Z,15.27
2018-08-19T06:43:16.989Z,22.03
2018-08-19T06:45:51.230Z,16.80
2018-08-19T06:48:25.631Z,20.73
2018-08-19T06:50:59.918Z,16.47
2018-08-19T06:53:34.327Z,17.67
2018-08-19T06:56:08.633Z,21.83
2018-08-19T06:58:42.935Z,16.87
2018-08-19T07:01:17.223Z,22.73
2018-08-19T07:03:55.526Z,20.23
2018-08-19T07:06:29.768Z,22.83
2018-08-19T07:09:05.390Z,20.00
2018-08-19T07:11:51.934Z,22.10
2018-08-19T07:14:27.189Z,22.77
2018-08-19T07:17:01.414Z,21.00
2018-08-19T07:19:36.338Z,24.37
2018-08-19T07:22:13.885Z,23.23
2018-08-19T07:24:48.249Z,21.47
2018-08-19T07:27:22.450Z,21.13
2018-08-19T07:29:56.761Z,20.90
2018-08-19T07:32:31.037Z,21.10
2018-08-19T07:35:06.066Z,21.73
2018-08-19T07:37:40.242Z,19.27
2018-08-19T07:40:14.594Z,19.20
2018-08-19T07:42:48.873Z,21.10
2018-08-19T07:45:23.081Z,22.70
2018-08-19T07:47:57.459Z,27.47
2018-08-19T07:50:31.914Z,23.93
2018-08-19T07:53:06.185Z,21.60
2018-08-19T07:55:40.385Z,20.10
2018-08-19T07:58:20.570Z,25.90
2018-08-19T08:00:54.733Z,19.23
2018-08-19T08:03:28.858Z,19.37
2018-08-19T08:06:03.221Z,18.67
2018-08-19T08:08:37.493Z,18.00
2018-08-19T08:11:11.743Z,27.40
2018-08-19T08:13:46.031Z,22.13
2018-08-19T08:16:20.323Z,23.50
2018-08-19T08:18:54.747Z,23.77
2018-08-19T08:21:29.964Z,27.53
2018-08-19T08:24:04.355Z,26.37
2018-08-19T08:26:43.889Z,21.03
2018-08-19T08:29:18.826Z,20.53
2018-08-19T08:31:56.807Z,23.60
2018-08-19T08:34:31.191Z,24.47
2018-08-19T08:37:06.455Z,19.23
2018-08-19T08:39:40.789Z,17.90
2018-08-19T08:42:15.090Z,19.83
2018-08-19T08:44:49.286Z,19.50
2018-08-19T08:47:23.657Z,20.37
2018-08-19T08:49:58.079Z,16.70
2018-08-19T08:52:32.377Z,20.67
2018-08-19T08:55:09.294Z,20.77
2018-08-19T08:57:43.458Z,17.93
2018-08-19T09:00:17.781Z,16.60
2018-08-19T09:02:52.087Z,18.60
2018-08-19T09:05:26.290Z,17.17
2018-08-19T09:08:00.469Z,14.13
2018-08-19T09:10:34.747Z,26.47
2018-08-19T09:13:08.940Z,17.87
2018-08-19T09:15:43.121Z,14.90
2018-08-19T09:18:17.453Z,18.40
2018-08-19T09:20:51.851Z,17.77
2018-08-19T09:23:26.251Z,16.50
2018-08-19T09:26:00.475Z,14.90
2018-08-19T09:28:34.810Z,17.60
2018-08-19T09:31:09.423Z,19.77
2018-08-19T09:33:43.703Z,16.23
2018-08-19T09:36:18.047Z,15.00
2018-08-19T09:38:52.338Z,19.00
2018-08-19T09:41:26.684Z,16.40
2018-08-19T09:44:00.978Z,18.13
2018-08-19T09:46:35.275Z,18.00
2018-08-19T09:49:09.601Z,13.73
2018-08-19T09:51:43.802Z,14.00
2018-08-19T09:54:22.328Z,12.20
2018-08-19T09:56:56.662Z,13.80
2018-08-19T09:59:30.990Z,18.07
2018-08-19T10:02:07.343Z,12.90
2018-08-19T10:04:41.607Z,11.13
2018-08-19T10:07:15.832Z,14.73
2018-08-19T10:09:50.058Z,13.73
2018-08-19T10:12:24.354Z,10.83
2018-08-19T10:14:58.502Z,15.87
2018-08-19T10:17:32.848Z,12.70
2018-08-19T10:20:07.210Z,13.83
2018-08-19T10:22:42.693Z,10.73
2018-08-19T10:25:18.749Z,14.97
2018-08-19T10:27:54.311Z,12.60
2018-08-19T10:30:28.709Z,13.10
2018-08-19T10:33:09.066Z,14.37
2018-08-19T10:35:43.374Z,13.20
2018-08-19T10:38:17.683Z,13.77
2018-08-19T10:40:56.997Z,14.00
2018-08-19T10:43:31.159Z,13.60
2018-08-19T10:46:05.465Z,16.07
2018-08-19T10:48:39.787Z,12.27
2018-08-19T10:51:14.066Z,10.40
2018-08-19T10:53:50.794Z,13.93
2018-08-19T10:56:26.091Z,14.93
2018-08-19T10:59:00.662Z,13.43
2018-08-19T11:01:35.114Z,14.23
2018-08-19T11:04:09.298Z,11.07
2018-08-19T11:06:43.630Z,14.30
2018-08-19T11:09:17.830Z,11.27
2018-08-19T11:11:52.142Z,13.70
2018-08-19T11:14:26.309Z,13.53
2018-08-19T11:17:00.614Z,11.27
2018-08-19T11:19:37.965Z,10.97
2018-08-19T11:22:12.299Z,13.20
2018-08-19T11:24:46.740Z,10.13
2018-08-19T11:27:23.308Z,11.70
2018-08-19T11:29:57.505Z,16.10
2018-08-19T11:32:35.850Z,12.40
2018-08-19T11:35:10.142Z,15.00
2018-08-19T11:37:44.310Z,9.70
2018-08-19T11:40:18.618Z,11.77
2018-08-19T11:42:52.885Z,14.30
2018-08-19T11:45:27.124Z,11.40
2018-08-19T11:48:01.606Z,14.83
2018-08-19T11:50:35.926Z,12.23
2018-08-19T11:53:10.089Z,11.03
2018-08-19T11:55:44.429Z,12.70
2018-08-19T11:58:32.557Z,14.10
2018-08-19T12:01:08.057Z,9.50
2018-08-19T12:03:55.991Z,13.00
2018-08-19T12:06:31.416Z,12.60
2018-08-19T12:09:10.459Z,12.97
2018-08-19T12:11:44.663Z,9.07
2018-08-19T12:14:18.909Z,10.87
2018-08-19T12:16:59.478Z,10.67
2018-08-19T12:19:34.531Z,10.67
2018-08-19T12:22:09.212Z,11.83
2018-08-19T12:24:47.628Z,8.73
2018-08-19T12:27:22.896Z,12.70
2018-08-19T12:30:02.806Z,9.70
2018-08-19T12:32:37.168Z,10.77
2018-08-19T12:35:11.514Z,9.60
2018-08-19T12:37:45.829Z,12.87
2018-08-19T12:40:20.138Z,9.20
2018-08-19T12:42:54.491Z,10.17
2018-08-19T12:45:28.641Z,9.73
2018-08-19T12:48:02.922Z,10.23
2018-08-19T12:50:37.338Z,9.43
2018-08-19T12:53:11.649Z,13.00
2018-08-19T12:55:45.962Z,7.60
2018-08-19T12:58:20.237Z,9.43
2018-08-19T13:00:54.610Z,10.10
2018-08-19T13:03:29.134Z,8.70
2018-08-19T13:06:06.548Z,9.00
2018-08-19T13:08:40.887Z,9.43
2018-08-19T13:11:15.175Z,7.97
2018-08-19T13:13:49.475Z,8.53
2018-08-19T13:16:23.889Z,9.77
2018-08-19T13:18:58.167Z,16.43
2018-08-19T13:21:32.484Z,7.87
2018-08-19T13:24:06.857Z,12.03
2018-08-19T13:26:41.165Z,7.97
2018-08-19T13:29:15.474Z,15.63
2018-08-19T13:31:49.902Z,9.50
2018-08-19T13:34:24.947Z,7.53
2018-08-19T13:36:59.408Z,8.73
2018-08-19T13:39:33.699Z,10.40
2018-08-19T13:42:08.235Z,8.73
2018-08-19T13:44:42.525Z,10.93
2018-08-19T13:47:16.924Z,8.00
2018-08-19T13:49:51.198Z,7.90
2018-08-19T13:52:25.486Z,10.47
2018-08-19T13:55:01.515Z,6.93
2018-08-19T13:57:35.683Z,7.43
2018-08-19T14:00:11.662Z,7.97
2018-08-19T14:02:46.550Z,9.90
2018-08-19T14:05:20.692Z,10.37
2018-08-19T14:07:55.090Z,7.73
2018-08-19T14:10:29.398Z,14.30
2018-08-19T14:13:03.752Z,10.20
2018-08-19T14:15:38.110Z,9.20
2018-08-19T14:18:12.514Z,9.17
2018-08-19T14:20:46.915Z,9.03
2018-08-19T14:23:21.127Z,9.73
2018-08-19T14:25:55.298Z,7.43
2018-08-19T14:28:29.623Z,9.03
2018-08-19T14:31:03.894Z,9.00
2018-08-19T14:33:38.093Z,10.63
2018-08-19T14:36:12.362Z,7.63
2018-08-19T14:38:46.691Z,9.77
2018-08-19T14:41:20.993Z,9.83
2018-08-19T14:44:04.290Z,9.07
2018-08-19T14:46:38.496Z,9.60
2018-08-19T14:49:12.864Z,7.17
2018-08-19T14:51:57.822Z,8.17
2018-08-19T14:54:31.982Z,10.43
2018-08-19T14:57:06.247Z,9.53
2018-08-19T14:59:40.558Z,9.87
2018-08-19T15:02:14.894Z,7.40
2018-08-19T15:04:49.673Z,10.60
2018-08-19T15:07:25.332Z,8.80
2018-08-19T15:09:59.578Z,10.00
2018-08-19T15:12:33.963Z,12.40
2018-08-19T15:15:09.332Z,16.93
2018-08-19T15:17:47.982Z,9.77
2018-08-19T15:20:27.378Z,9.40
2018-08-19T15:23:20.893Z,9.77
2018-08-19T15:25:55.366Z,9.90
2018-08-19T15:28:29.828Z,10.47
2018-08-19T15:31:04.409Z,9.13
2018-08-19T15:33:38.736Z,11.93
2018-08-19T15:36:13.039Z,10.20
2018-08-19T15:38:47.252Z,11.43
2018-08-19T15:41:21.442Z,10.60
2018-08-19T15:43:55.726Z,8.87
2018-08-19T15:46:30.034Z,9.87
2018-08-19T15:49:07.838Z,10.00
2018-08-19T15:51:42.069Z,10.87
2018-08-19T15:54:16.353Z,9.87
2018-08-19T15:56:50.556Z,10.30
2018-08-19T15:59:24.863Z,10.63
2018-08-19T16:01:59.218Z,8.83
2018-08-19T16:04:33.458Z,10.03
2018-08-19T16:07:07.598Z,10.80
2018-08-19T16:09:42.071Z,9.43
2018-08-19T16:12:16.314Z,10.83
2018-08-19T16:14:50.662Z,8.97
2018-08-19T16:17:24.965Z,8.37
2018-08-19T16:19:59.265Z,8.30
2018-08-19T16:22:33.566Z,7.53
2018-08-19T16:25:07.829Z,10.17
2018-08-19T16:27:42.134Z,11.10
2018-08-19T16:30:16.440Z,8.80
2018-08-19T16:32:50.630Z,9.10
2018-08-19T16:35:24.864Z,9.63
2018-08-19T16:37:59.135Z,9.30
2018-08-19T16:40:33.409Z,8.67
2018-08-19T16:43:07.705Z,14.60
2018-08-19T16:45:41.882Z,11.07
2018-08-19T16:48:16.178Z,9.13
2018-08-19T16:50:50.529Z,10.07
2018-08-19T16:53:24.908Z,11.40
2018-08-19T16:55:59.146Z,12.73
2018-08-19T16:58:33.409Z,11.23
2018-08-19T17:01:07.764Z,11.03
2018-08-19T17:03:42.146Z,11.53
2018-08-19T17:06:16.514Z,10.23
2018-08-19T17:08:50.714Z,9.50
2018-08-19T17:11:24.920Z,8.80
2018-08-19T17:13:59.235Z,8.60
2018-08-19T17:16:33.502Z,10.90
2018-08-19T17:19:07.822Z,9.73
2018-08-19T17:21:42.121Z,9.00
2018-08-19T17:24:16.299Z,10.93
2018-08-19T17:26:57.124Z,8.10
2018-08-19T17:29:31.269Z,9.37
2018-08-19T17:32:05.604Z,7.53
2018-08-19T17:34:40.634Z,9.77
2018-08-19T17:37:14.894Z,8.17
2018-08-19T17:39:49.296Z,9.27
2018-08-19T17:42:23.567Z,10.60
2018-08-19T17:44:57.751Z,10.33
2018-08-19T17:47:32.013Z,11.90
2018-08-19T17:50:06.355Z,12.40
2018-08-19T17:52:40.727Z,20.10
2018-08-19T17:55:15.089Z,10.50
2018-08-19T17:57:49.467Z,10.87
2018-08-19T18:00:23.898Z,11.30
2018-08-19T18:02:58.287Z,9.97
2018-08-19T18:05:32.631Z,12.23
2018-08-19T18:08:07.020Z,10.43
2018-08-19T18:10:45.715Z,10.20
2018-08-19T18:13:19.998Z,9.63
2018-08-19T18:15:54.495Z,10.67
2018-08-19T18:18:28.771Z,10.90
2018-08-19T18:21:05.370Z,12.13
2018-08-19T18:23:42.839Z,11.47
2018-08-19T18:26:17.199Z,10.07
2018-08-19T18:28:51.505Z,12.50
2018-08-19T18:31:25.779Z,12.50
2018-08-19T18:34:01.640Z,11.13
2018-08-19T18:36:36.337Z,12.03
2018-08-19T18:39:11.247Z,12.67
2018-08-19T18:41:46.005Z,10.27
2018-08-19T18:44:20.182Z,9.97
2018-08-19T18:46:54.431Z,10.50
2018-08-19T18:49:28.858Z,14.40
2018-08-19T18:52:08.507Z,12.37
2018-08-19T18:54:42.688Z,16.00
2018-08-19T18:57:16.972Z,10.40
2018-08-19T18:59:51.235Z,9.80
2018-08-19T19:02:25.485Z,8.53
2018-08-19T19:04:59.677Z,13.70
2018-08-19T19:07:34.004Z,10.20
2018-08-19T19:10:08.293Z,13.97
2018-08-19T19:12:42.566Z,12.93
2018-08-19T19:15:16.818Z,12.50
2018-08-19T19:17:51.126Z,15.27
2018-08-19T19:20:25.543Z,11.97
2018-08-19T19:23:02.142Z,11.37
2018-08-19T19:25:41.067Z,13.47
2018-08-19T19:28:15.385Z,10.30
2018-08-19T19:30:53.814Z,11.10
2018-08-19T19:33:28.571Z,11.73
2018-08-19T19:36:09.089Z,11.73
2018-08-19T19:38:48.970Z,14.93
2018-08-19T19:41:26.315Z,11.10
2018-08-19T19:44:16.999Z,14.00
2018-08-19T19:46:51.933Z,10.67
2018-08-19T19:49:26.221Z,10.70
2018-08-19T19:52:01.918Z,12.43
2018-08-19T19:54:36.182Z,13.73
2018-08-19T19:57:10.496Z,14.60
2018-08-19T19:59:44.796Z,9.93
2018-08-19T20:02:24.205Z,10.40
2018-08-19T20:04:58.647Z,13.80
2018-08-19T20:07:32.856Z,13.23
2018-08-19T20:10:09.942Z,12.23
2018-08-19T20:12:44.234Z,15.60
2018-08-19T20:15:18.670Z,11.17
2018-08-19T20:17:53.045Z,14.80
2018-08-19T20:20:27.377Z,11.80
2018-08-19T20:23:07.258Z,11.00
2018-08-19T20:25:41.751Z,14.57
2018-08-19T20:28:16.042Z,11.93
2018-08-19T20:30:50.379Z,13.43
2018-08-19T20:33:28.463Z,12.33
2018-08-19T20:36:02.686Z,16.17
2018-08-19T20:38:37.002Z,16.53
2018-08-19T20:41:11.318Z,11.50
2018-08-19T20:43:45.622Z,12.00
2018-08-19T20:46:19.796Z,12.83
2018-08-19T20:48:54.334Z,11.87
2018-08-19T20:51:28.618Z,11.43
2018-08-19T20:54:02.979Z,12.13
2018-08-19T20:56:37.162Z,10.53
2018-08-19T20:59:11.494Z,15.40
2018-08-19T21:01:45.670Z,10.97
2018-08-19T21:04:19.835Z,11.27
2018-08-19T21:06:54.333Z,11.57
2018-08-19T21:09:28.503Z,11.63
2018-08-19T21:12:03.178Z,14.13
2018-08-19T21:14:37.402Z,11.87
2018-08-19T21:17:11.630Z,10.90
2018-08-19T21:19:45.881Z,13.77
2018-08-19T21:22:20.287Z,11.80
2018-08-19T21:24:54.566Z,11.17
2018-08-19T21:27:28.874Z,11.37
2018-08-19T21:30:03.254Z,16.63
2018-08-19T21:32:37.574Z,12.30
2018-08-19T21:35:11.801Z,10.13
2018-08-19T21:37:46.613Z,10.67
2018-08-19T21:40:26.737Z,13.97
2018-08-19T21:43:01.123Z,10.53
2018-08-19T21:45:36.081Z,11.90
2018-08-19T21:48:11.966Z,9.97
2018-08-19T21:50:46.214Z,12.30
2018-08-19T21:53:20.674Z,12.37
2018-08-19T21:55:54.974Z,13.13
2018-08-19T21:58:29.364Z,11.67
2018-08-19T22:01:08.037Z,13.50
2018-08-19T22:03:48.386Z,11.20
2018-08-19T22:06:22.702Z,14.07
2018-08-19T22:08:56.961Z,10.93
2018-08-19T22:11:31.246Z,11.47
2018-08-19T22:14:05.738Z,11.67
2018-08-19T22:16:39.901Z,13.17
2018-08-19T22:19:14.203Z,14.83
2018-08-19T22:21:48.449Z,11.70
2018-08-19T22:24:22.703Z,12.90
2018-08-19T22:26:58.422Z,10.60
2018-08-19T22:29:32.624Z,10.87
2018-08-19T22:32:06.930Z,11.73
2018-08-19T22:34:41.197Z,9.97
2018-08-19T22:37:15.501Z,13.20
2018-08-19T22:39:49.832Z,11.10
2018-08-19T22:42:24.098Z,12.63
2018-08-19T22:44:58.286Z,10.73
2018-08-19T22:47:32.621Z,12.57
2018-08-19T22:50:06.917Z,11.73
2018-08-19T22:52:41.193Z,11.13
2018-08-19T22:55:15.563Z,11.23
2018-08-19T22:57:49.858Z,13.30
2018-08-19T23:00:25.397Z,12.17
2018-08-19T23:02:59.541Z,11.17
2018-08-19T23:05:33.977Z,11.73
2018-08-19T23:08:08.882Z,11.33
2018-08-19T23:10:43.045Z,10.90
2018-08-19T23:13:32.804Z,11.63
2018-08-19T23:16:08.775Z,11.93
2018-08-19T23:18:43.355Z,9.77
2018-08-19T23:21:17.745Z,8.77
2018-08-19T23:23:52.042Z,9.87
2018-08-19T23:26:26.300Z,14.60
2018-08-19T23:29:00.633Z,10.57
2018-08-19T23:31:34.960Z,13.87
2018-08-19T23:34:09.270Z,10.43
2018-08-19T23:36:43.602Z,10.57
2018-08-19T23:39:17.894Z,12.43
2018-08-19T23:41:52.190Z,11.00
2018-08-19T23:44:26.503Z,10.40
2018-08-19T23:47:00.910Z,12.83
2018-08-19T23:49:35.084Z,12.57
2018-08-19T23:52:09.433Z,11.73
2018-08-19T23:54:43.777Z,11.10
2018-08-19T23:57:17.978Z,11.87
2018-08-19T23:59:52.382Z,11.90
